Search for airport 
image banner adimage banner adimage banner ad
image banner ad

KDVO - Gnoss Field

Located in Novato, United States

ICAO - DVO, IATA -

Data provided by Airmate  

General information

Coordinates: N38°8'37" W122°33'26"
Elevation is 4 feet MSL.
Magnetic variation is 16° East
View others Airports in California

Operational data

Special qualification required
Current time UTC:
Current local time:
Weather
METAR: KDVO 221355Z AUTO 00000KT 10SM BKN017 OVC023 16/14 A2992 RMK AO2
View NOTAMs / SUP AIP / TFR affecting this airport [VIEW]
Communications frequencies: [VIEW]

Runways:

RWY identifierQFULength (ft)Width (ft)SurfaceLDA (ft)
13150°330075ASPH
31330°330075ASPH

Airport contact information

Address: Novato United States

Other aviation service providers

Flight schools

Aeroclub Marin

Aeroclub Marin
aeroclubmarin@cs.com+1(415)898-4834

Scanlon Aviation, Llc

Scanlon Aviation, Llc

Satellite view of KDVO